createdAt,value
2022-08-10T00:01:36.437Z,3.70
2022-08-10T00:04:05.316Z,3.85
2022-08-10T00:06:33.040Z,4.25
2022-08-10T00:09:00.386Z,3.70
2022-08-10T00:11:29.097Z,4.68
2022-08-10T00:13:57.890Z,4.05
2022-08-10T00:16:28.185Z,4.13
2022-08-10T00:18:55.769Z,4.75
2022-08-10T00:21:23.323Z,4.32
2022-08-10T00:23:54.987Z,4.22
2022-08-10T00:26:24.031Z,4.13
2022-08-10T00:28:51.412Z,3.90
2022-08-10T00:31:19.139Z,3.88
2022-08-10T00:33:46.450Z,3.92
2022-08-10T00:36:14.053Z,4.47
2022-08-10T00:38:42.754Z,4.53
2022-08-10T00:41:10.151Z,4.53
2022-08-10T00:43:37.698Z,4.45
2022-08-10T00:46:05.289Z,4.88
2022-08-10T00:48:32.965Z,4.45
2022-08-10T00:51:01.692Z,4.40
2022-08-10T00:53:29.496Z,4.07
2022-08-10T00:57:14.270Z,4.50
2022-08-10T00:58:48.238Z,4.57
2022-08-10T01:02:08.245Z,4.95
2022-08-10T01:04:54.248Z,4.75
2022-08-10T01:07:27.868Z,4.93
2022-08-10T01:10:30.908Z,4.40
2022-08-10T01:13:11.299Z,4.88
2022-08-10T01:15:48.103Z,5.13
2022-08-10T01:18:24.102Z,4.78
2022-08-10T01:21:29.899Z,5.47
2022-08-10T01:23:57.319Z,4.70
2022-08-10T01:26:49.548Z,5.85
2022-08-10T01:29:31.191Z,5.18
2022-08-10T01:32:05.226Z,5.18
2022-08-10T01:34:42.789Z,4.10
2022-08-10T01:37:17.125Z,5.17
2022-08-10T01:39:52.045Z,4.88
2022-08-10T01:42:21.305Z,4.80
2022-08-10T01:44:57.621Z,5.30
2022-08-10T01:47:48.622Z,5.45
2022-08-10T01:50:53.346Z,5.47
2022-08-10T01:53:53.929Z,4.53
2022-08-10T01:56:23.803Z,5.85
2022-08-10T01:58:58.094Z,5.40
2022-08-10T02:01:30.846Z,6.75
2022-08-10T02:04:04.821Z,6.25
2022-08-10T02:06:45.449Z,7.20
2022-08-10T02:09:17.405Z,7.20
2022-08-10T02:11:57.203Z,6.30
2022-08-10T02:14:49.756Z,6.65
2022-08-10T02:17:58.287Z,6.35
2022-08-10T02:20:14.305Z,6.75
2022-08-10T02:22:44.597Z,5.88
2022-08-10T02:25:40.901Z,6.55
2022-08-10T02:28:05.142Z,6.75
2022-08-10T02:30:33.728Z,7.50
2022-08-10T02:33:03.959Z,7.32
2022-08-10T02:35:54.426Z,7.07
2022-08-10T02:38:59.493Z,6.28
2022-08-10T02:45:16.071Z,6.78
2022-08-10T02:45:24.118Z,7.00
2022-08-10T02:47:23.688Z,6.50
2022-08-10T02:50:04.101Z,8.20
2022-08-10T02:52:57.235Z,7.07
2022-08-10T02:55:26.934Z,7.95
2022-08-10T02:58:16.676Z,7.28
2022-08-10T03:00:51.806Z,6.80
2022-08-10T03:03:26.246Z,6.75
2022-08-10T03:06:11.887Z,6.70
2022-08-10T03:08:43.834Z,6.25
2022-08-10T03:12:36.177Z,6.03
2022-08-10T03:14:10.755Z,7.60
2022-08-10T03:16:39.516Z,6.50
2022-08-10T03:20:33.505Z,6.57
2022-08-10T03:21:59.263Z,7.07
2022-08-10T03:24:32.956Z,6.43
2022-08-10T03:27:02.820Z,6.40
2022-08-10T03:30:28.391Z,7.35
2022-08-10T03:32:23.460Z,8.48
2022-08-10T03:34:52.336Z,8.00
2022-08-10T03:37:20.250Z,7.85
2022-08-10T03:39:47.747Z,7.90
2022-08-10T03:42:16.500Z,7.13
2022-08-10T03:44:50.220Z,7.00
2022-08-10T03:47:19.722Z,7.10
2022-08-10T03:49:49.844Z,6.85
2022-08-10T03:52:18.645Z,7.30
2022-08-10T03:54:47.171Z,7.13
2022-08-10T03:57:16.136Z,5.88
2022-08-10T03:59:43.717Z,6.20
2022-08-10T04:02:45.116Z,6.28
2022-08-10T04:05:00.373Z,6.60
2022-08-10T04:07:29.383Z,6.75
2022-08-10T04:09:59.832Z,7.68
2022-08-10T04:12:27.163Z,7.53
2022-08-10T04:14:54.572Z,6.85
2022-08-10T04:18:02.667Z,7.25
2022-08-10T04:20:17.606Z,6.65
2022-08-10T04:22:52.517Z,6.20
2022-08-10T04:25:22.983Z,6.63
2022-08-10T04:27:51.733Z,7.32
2022-08-10T04:30:19.858Z,6.75
2022-08-10T04:32:52.460Z,7.40
2022-08-10T04:35:22.667Z,7.63
2022-08-10T04:37:51.637Z,6.88
2022-08-10T04:40:28.382Z,6.85
2022-08-10T04:43:02.212Z,6.38
2022-08-10T04:45:48.263Z,7.35
2022-08-10T04:48:42.866Z,6.53
2022-08-10T04:51:17.662Z,6.03
2022-08-10T04:54:05.808Z,6.15
2022-08-10T04:56:40.018Z,7.18
2022-08-10T04:59:09.332Z,7.30
2022-08-10T05:02:21.340Z,6.40
2022-08-10T05:04:34.789Z,6.43
2022-08-10T05:07:16.773Z,7.35
2022-08-10T05:10:02.067Z,5.97
2022-08-10T05:12:38.826Z,7.03
2022-08-10T05:15:11.871Z,6.63
2022-08-10T05:17:40.609Z,7.18
2022-08-10T05:20:10.215Z,6.10
2022-08-10T05:22:42.798Z,7.65
2022-08-10T05:25:12.718Z,7.65
2022-08-10T05:27:41.211Z,7.38
2022-08-10T05:30:11.617Z,7.22
2022-08-10T05:32:58.358Z,7.40
2022-08-10T05:35:28.960Z,8.30
2022-08-10T05:38:18.247Z,6.80
2022-08-10T05:40:48.318Z,7.70
2022-08-10T05:43:18.364Z,8.52
2022-08-10T05:46:19.510Z,7.82
2022-08-10T05:48:53.980Z,8.88
2022-08-10T05:51:24.585Z,8.23
2022-08-10T05:54:02.618Z,9.75
2022-08-10T05:56:56.491Z,8.07
2022-08-10T06:00:31.106Z,8.35
2022-08-10T06:02:41.307Z,8.48
2022-08-10T06:05:17.230Z,8.65
2022-08-10T06:08:10.122Z,9.38
2022-08-10T06:12:16.722Z,9.98
2022-08-10T06:14:12.903Z,10.48
2022-08-10T06:16:36.011Z,10.43
2022-08-10T06:19:04.146Z,9.32
2022-08-10T06:21:34.584Z,10.57
2022-08-10T06:24:03.006Z,11.20
2022-08-10T06:26:30.566Z,9.63
2022-08-10T06:29:07.093Z,8.82
2022-08-10T06:31:48.137Z,8.02
2022-08-10T06:34:23.723Z,8.45
2022-08-10T06:36:53.212Z,9.45
2022-08-10T06:39:33.536Z,9.18
2022-08-10T06:42:18.544Z,8.98
2022-08-10T06:44:58.657Z,8.60
2022-08-10T06:47:34.104Z,7.88
2022-08-10T06:50:09.498Z,7.25
2022-08-10T06:52:38.425Z,9.02
2022-08-10T06:55:10.289Z,8.70
2022-08-10T06:57:40.519Z,8.23
2022-08-10T07:00:10.288Z,8.90
2022-08-10T07:02:57.480Z,7.32
2022-08-10T07:05:28.153Z,8.10
2022-08-10T07:07:59.149Z,8.50
2022-08-10T07:10:46.012Z,7.20
2022-08-10T07:14:15.458Z,8.68
2022-08-10T07:16:14.592Z,8.00
2022-08-10T07:18:45.029Z,8.18
2022-08-10T07:21:13.948Z,6.40
2022-08-10T07:23:57.053Z,6.78
2022-08-10T07:26:31.184Z,8.25
2022-08-10T07:29:03.522Z,7.65
2022-08-10T07:31:55.649Z,7.03
2022-08-10T07:34:29.114Z,7.57
2022-08-10T07:37:07.839Z,5.72
2022-08-10T07:40:02.799Z,6.22
2022-08-10T07:42:31.324Z,5.53
2022-08-10T07:44:59.982Z,6.63
2022-08-10T07:47:53.884Z,6.30
2022-08-10T07:50:25.546Z,6.75
2022-08-10T07:52:57.779Z,6.03
2022-08-10T07:56:02.142Z,6.75
2022-08-10T07:58:16.241Z,6.10
2022-08-10T08:00:46.348Z,8.82
2022-08-10T08:03:17.348Z,8.05
2022-08-10T08:05:58.346Z,7.72
2022-08-10T08:08:32.195Z,8.05
2022-08-10T08:11:00.636Z,8.25
2022-08-10T08:13:29.611Z,8.05
2022-08-10T08:16:17.021Z,8.63
2022-08-10T08:19:16.278Z,7.07
2022-08-10T08:24:06.551Z,6.68
2022-08-10T08:24:32.489Z,5.07
2022-08-10T08:27:02.405Z,6.00
2022-08-10T08:29:34.537Z,4.85
2022-08-10T08:32:06.105Z,4.40
2022-08-10T08:34:38.119Z,5.18
2022-08-10T08:37:07.297Z,4.20
2022-08-10T08:39:36.972Z,4.28
2022-08-10T08:42:26.444Z,3.97
2022-08-10T08:45:26.520Z,3.50
2022-08-10T08:48:11.724Z,3.05
2022-08-10T08:52:09.985Z,3.60
2022-08-10T08:54:51.275Z,4.00
2022-08-10T08:57:50.499Z,3.38
2022-08-10T09:00:35.938Z,4.30
2022-08-10T09:03:40.279Z,3.83
2022-08-10T09:06:40.803Z,3.22
2022-08-10T09:09:31.646Z,4.18
2022-08-10T09:12:29.307Z,3.90
2022-08-10T09:15:41.068Z,3.22
2022-08-10T09:18:05.391Z,2.90
2022-08-10T09:21:00.173Z,3.13
2022-08-10T09:24:04.479Z,4.30
2022-08-10T09:26:48.158Z,3.63
2022-08-10T09:29:25.881Z,3.20
2022-08-10T09:36:16.039Z,3.53
2022-08-10T09:36:21.269Z,2.95
2022-08-10T09:39:02.842Z,3.00
2022-08-10T09:41:40.013Z,2.40
2022-08-10T09:44:35.772Z,3.25
2022-08-10T09:48:01.408Z,2.42
2022-08-10T09:54:03.764Z,2.75
2022-08-10T09:57:02.988Z,2.80
2022-08-10T10:00:00.118Z,3.17
2022-08-10T10:02:39.210Z,3.90
2022-08-10T10:05:20.294Z,2.80
2022-08-10T10:08:02.170Z,3.10
2022-08-10T10:10:42.200Z,3.00
2022-08-10T10:14:01.869Z,2.70
2022-08-10T10:17:01.840Z,3.03
2022-08-10T10:19:57.845Z,2.45
2022-08-10T10:23:03.226Z,2.70
2022-08-10T10:25:50.830Z,2.50
2022-08-10T10:29:09.822Z,2.85
2022-08-10T10:31:36.350Z,2.60
2022-08-10T10:34:15.083Z,2.83
2022-08-10T10:36:45.321Z,2.22
2022-08-10T10:39:23.761Z,2.65
2022-08-10T10:42:28.951Z,2.58
2022-08-10T10:45:15.321Z,2.78
2022-08-10T10:48:28.977Z,2.35
2022-08-10T10:51:25.065Z,2.47
2022-08-10T10:54:03.079Z,2.97
2022-08-10T10:56:55.160Z,2.85
2022-08-10T10:59:57.395Z,2.38
2022-08-10T11:03:10.267Z,2.35
2022-08-10T11:06:03.816Z,2.17
2022-08-10T11:08:36.585Z,2.65
2022-08-10T11:12:00.031Z,2.97
2022-08-10T11:14:29.318Z,3.10
2022-08-10T11:17:17.467Z,2.83
2022-08-10T11:20:39.008Z,2.60
2022-08-10T11:23:36.509Z,2.47
2022-08-10T11:26:31.570Z,3.25
2022-08-10T11:29:10.063Z,2.47
2022-08-10T11:31:41.925Z,2.30
2022-08-10T11:34:48.931Z,2.35
2022-08-10T11:38:31.118Z,2.40
2022-08-10T11:40:53.271Z,2.42
2022-08-10T11:43:29.023Z,2.85
2022-08-10T11:46:33.467Z,2.70
2022-08-10T11:49:17.939Z,2.03
2022-08-10T11:51:53.202Z,2.08
2022-08-10T11:54:43.450Z,2.60
2022-08-10T11:57:13.036Z,2.15
2022-08-10T11:59:59.250Z,1.90
2022-08-10T12:02:39.408Z,2.50
2022-08-10T12:05:21.514Z,2.42
2022-08-10T12:10:04.071Z,1.80
2022-08-10T12:10:42.765Z,2.83
2022-08-10T12:13:16.912Z,2.20
2022-08-10T12:16:06.513Z,2.03
2022-08-10T12:19:02.058Z,2.03
2022-08-10T12:21:53.917Z,2.22
2022-08-10T12:24:29.475Z,1.92
2022-08-10T12:27:16.349Z,1.88
2022-08-10T12:30:02.051Z,2.15
2022-08-10T12:32:45.546Z,2.67
2022-08-10T12:35:22.721Z,2.25
2022-08-10T12:38:21.607Z,2.28
2022-08-10T12:41:00.938Z,1.75
2022-08-10T12:44:07.488Z,2.10
2022-08-10T12:46:46.168Z,1.63
2022-08-10T12:49:38.657Z,2.33
2022-08-10T12:52:16.912Z,2.60
2022-08-10T12:54:46.478Z,1.65
2022-08-10T12:57:22.393Z,2.30
2022-08-10T12:59:53.706Z,2.10
2022-08-10T13:02:34.029Z,2.22
2022-08-10T13:05:08.798Z,2.05
2022-08-10T13:08:25.326Z,2.20
2022-08-10T13:10:27.683Z,1.70
2022-08-10T13:12:59.062Z,1.90
2022-08-10T13:15:49.771Z,2.00
2022-08-10T13:18:55.057Z,2.08
2022-08-10T13:21:23.519Z,1.67
2022-08-10T13:24:10.906Z,1.88
2022-08-10T13:27:26.421Z,2.35
2022-08-10T13:30:07.049Z,1.90
2022-08-10T13:32:39.491Z,2.15
2022-08-10T13:35:12.649Z,1.85
2022-08-10T13:37:44.014Z,2.53
2022-08-10T13:40:15.381Z,1.60
2022-08-10T13:42:45.713Z,2.35
2022-08-10T13:45:22.676Z,1.98
2022-08-10T13:47:55.998Z,1.75
2022-08-10T13:50:32.027Z,2.30
2022-08-10T13:53:10.088Z,2.30
2022-08-10T13:55:56.422Z,1.98
2022-08-10T13:58:33.063Z,2.22
2022-08-10T14:01:09.057Z,2.05
2022-08-10T14:03:39.905Z,1.48
2022-08-10T14:06:12.940Z,2.42
2022-08-10T14:08:49.193Z,2.08
2022-08-10T14:11:44.937Z,1.77
2022-08-10T14:14:36.169Z,1.85
2022-08-10T14:17:46.028Z,1.60
2022-08-10T14:20:20.906Z,1.83
2022-08-10T14:22:49.591Z,2.72
2022-08-10T14:25:17.019Z,2.00
2022-08-10T14:28:02.172Z,2.35
2022-08-10T14:30:33.068Z,1.90
2022-08-10T14:33:04.693Z,2.30
2022-08-10T14:36:22.034Z,2.00
2022-08-10T14:38:32.097Z,1.52
2022-08-10T14:41:02.478Z,2.08
2022-08-10T14:43:40.149Z,1.95
2022-08-10T14:46:11.142Z,2.28
2022-08-10T14:48:42.305Z,1.60
2022-08-10T14:51:11.263Z,2.00
2022-08-10T14:53:43.107Z,2.30
2022-08-10T14:56:13.566Z,2.33
2022-08-10T14:59:05.784Z,2.10
2022-08-10T15:01:59.904Z,2.05
2022-08-10T15:04:28.967Z,2.10
2022-08-10T15:07:01.282Z,2.40
2022-08-10T15:10:00.516Z,1.92
2022-08-10T15:12:33.535Z,1.88
2022-08-10T15:15:03.144Z,1.45
2022-08-10T15:17:35.163Z,1.73
2022-08-10T15:20:16.211Z,1.67
2022-08-10T15:22:51.146Z,2.45
2022-08-10T15:25:26.222Z,2.60
2022-08-10T15:28:06.375Z,2.53
2022-08-10T15:30:44.171Z,2.13
2022-08-10T15:33:59.373Z,2.35
2022-08-10T15:36:43.038Z,2.10
2022-08-10T15:40:22.508Z,2.22
2022-08-10T15:42:31.534Z,2.53
2022-08-10T15:44:59.111Z,2.67
2022-08-10T15:47:45.605Z,3.00
2022-08-10T15:50:19.304Z,3.05
2022-08-10T15:53:10.048Z,3.83
2022-08-10T15:55:51.430Z,3.72
2022-08-10T15:58:50.100Z,3.33
2022-08-10T16:02:13.970Z,3.35
2022-08-10T16:04:42.075Z,2.40
2022-08-10T16:07:19.502Z,2.60
2022-08-10T16:10:22.902Z,3.28
2022-08-10T16:13:50.317Z,3.85
2022-08-10T16:15:55.370Z,3.70
2022-08-10T16:18:31.861Z,3.00
2022-08-10T16:21:02.905Z,2.17
2022-08-10T16:23:36.847Z,1.95
2022-08-10T16:26:14.862Z,1.95
2022-08-10T16:28:57.835Z,1.98
2022-08-10T16:31:28.322Z,1.92
2022-08-10T16:33:59.593Z,2.38
2022-08-10T16:36:43.192Z,1.80
2022-08-10T16:39:57.151Z,2.13
2022-08-10T16:42:14.864Z,2.45
2022-08-10T16:45:11.544Z,2.60
2022-08-10T16:47:48.111Z,2.05
2022-08-10T16:50:21.312Z,2.33
2022-08-10T16:52:52.255Z,1.80
2022-08-10T16:55:24.382Z,2.33
2022-08-10T16:58:15.205Z,2.05
2022-08-10T17:00:45.244Z,2.58
2022-08-10T17:04:04.932Z,2.00
2022-08-10T17:06:10.928Z,2.47
2022-08-10T17:08:49.073Z,2.15
2022-08-10T17:11:18.537Z,2.25
2022-08-10T17:13:46.399Z,2.22
2022-08-10T17:16:17.154Z,2.28
2022-08-10T17:18:47.060Z,2.45
2022-08-10T17:21:28.113Z,1.95
2022-08-10T17:23:58.100Z,2.03
2022-08-10T17:26:37.486Z,2.53
2022-08-10T17:29:58.166Z,2.05
2022-08-10T17:32:21.267Z,2.20
2022-08-10T17:34:53.715Z,2.40
2022-08-10T17:37:27.763Z,2.25
2022-08-10T17:40:11.496Z,2.10
2022-08-10T17:42:47.364Z,2.17
2022-08-10T17:45:46.693Z,2.67
2022-08-10T17:48:12.049Z,2.80
2022-08-10T17:50:46.123Z,2.15
2022-08-10T17:53:27.834Z,2.45
2022-08-10T17:56:18.161Z,2.75
2022-08-10T17:58:57.418Z,2.05
2022-08-10T18:01:40.293Z,2.40
2022-08-10T18:04:21.668Z,2.28
2022-08-10T18:07:13.536Z,2.10
2022-08-10T18:09:50.598Z,2.00
2022-08-10T18:12:30.198Z,2.10
2022-08-10T18:15:13.266Z,2.15
2022-08-10T18:17:46.104Z,2.60
2022-08-10T18:20:15.490Z,2.35
2022-08-10T18:22:50.874Z,2.15
2022-08-10T18:25:27.909Z,1.92
2022-08-10T18:28:03.779Z,2.47
2022-08-10T18:30:45.166Z,2.50
2022-08-10T18:33:19.133Z,2.20
2022-08-10T18:35:48.056Z,2.53
2022-08-10T18:38:17.565Z,2.10
2022-08-10T18:40:52.685Z,1.90
2022-08-10T18:44:06.047Z,2.60
2022-08-10T18:46:22.241Z,2.22
2022-08-10T18:49:08.916Z,2.25
2022-08-10T18:51:46.786Z,2.42
2022-08-10T18:54:38.912Z,2.40
2022-08-10T18:57:39.527Z,2.65
2022-08-10T19:00:12.286Z,2.95
2022-08-10T19:03:17.339Z,2.30
2022-08-10T19:06:05.683Z,2.00
2022-08-10T19:09:46.165Z,2.30
2022-08-10T19:12:31.131Z,2.57
2022-08-10T19:15:09.410Z,2.50
2022-08-10T19:18:17.909Z,2.70
2022-08-10T19:21:30.011Z,2.60
2022-08-10T19:24:04.752Z,2.80
2022-08-10T19:27:05.823Z,2.22
2022-08-10T19:30:12.393Z,2.75
2022-08-10T19:33:13.702Z,2.28
2022-08-10T19:36:13.266Z,3.45
2022-08-10T19:38:51.248Z,2.40
2022-08-10T19:41:42.194Z,3.45
2022-08-10T19:44:18.891Z,3.53
2022-08-10T19:46:59.847Z,2.80
2022-08-10T19:49:42.578Z,2.67
2022-08-10T19:52:36.383Z,2.80
2022-08-10T19:55:15.706Z,2.95
2022-08-10T19:58:07.660Z,2.88
2022-08-10T20:01:07.917Z,2.60
2022-08-10T20:03:54.738Z,3.20
2022-08-10T20:09:10.776Z,2.97
2022-08-10T20:21:06.619Z,3.30
2022-08-10T20:27:57.826Z,3.38
2022-08-10T20:30:23.646Z,2.83
2022-08-10T20:32:59.852Z,3.15
2022-08-10T20:35:35.857Z,3.22
2022-08-10T20:38:17.437Z,3.30
2022-08-10T20:40:50.423Z,3.38
2022-08-10T20:43:20.874Z,3.83
2022-08-10T20:46:09.528Z,3.83
2022-08-10T20:48:44.411Z,3.38
2022-08-10T20:51:19.181Z,3.45
2022-08-10T20:53:52.584Z,3.30
2022-08-10T20:56:42.176Z,4.03
2022-08-10T21:00:02.355Z,2.92
2022-08-10T21:02:46.500Z,2.80
2022-08-10T21:05:43.455Z,3.00
2022-08-10T21:08:16.339Z,3.30
2022-08-10T21:11:07.090Z,3.60
2022-08-10T21:13:49.456Z,3.33
2022-08-10T21:16:25.947Z,2.90
2022-08-10T21:19:19.168Z,3.30
2022-08-10T21:22:05.301Z,3.13
2022-08-10T21:24:46.157Z,4.28
2022-08-10T21:27:43.205Z,3.47
2022-08-10T21:30:20.743Z,2.80
2022-08-10T21:33:21.634Z,2.47
2022-08-10T21:36:02.007Z,3.00
2022-08-10T21:38:47.566Z,2.72
2022-08-10T21:42:07.148Z,3.17
2022-08-10T21:45:47.503Z,2.90
2022-08-10T21:52:29.390Z,2.92
2022-08-10T21:56:14.366Z,3.17
2022-08-10T22:16:10.891Z,3.25
2022-08-10T22:19:03.867Z,3.63
2022-08-10T22:22:07.998Z,4.43
2022-08-10T22:25:52.011Z,3.70
2022-08-10T22:28:38.648Z,4.40
2022-08-10T22:31:45.412Z,3.80
2022-08-10T22:34:51.221Z,3.83
2022-08-10T22:38:08.050Z,3.45
2022-08-10T22:40:54.292Z,4.07
2022-08-10T22:43:49.852Z,4.77
2022-08-10T22:46:46.428Z,3.75
2022-08-10T22:49:20.915Z,4.10
2022-08-10T22:51:57.925Z,3.40
2022-08-10T22:55:31.023Z,3.95
2022-08-10T22:58:17.195Z,5.15
2022-08-10T23:00:58.744Z,3.97
2022-08-10T23:03:28.327Z,4.35
2022-08-10T23:06:07.533Z,4.35
2022-08-10T23:09:04.118Z,3.72
2022-08-10T23:11:38.576Z,4.05
2022-08-10T23:14:12.082Z,3.67
2022-08-10T23:17:08.924Z,3.70
2022-08-10T23:19:45.422Z,3.83
2022-08-10T23:22:16.255Z,4.05
2022-08-10T23:24:45.781Z,4.18
2022-08-10T23:27:37.337Z,3.63
2022-08-10T23:30:10.509Z,4.10
2022-08-10T23:32:48.206Z,3.22
2022-08-10T23:36:28.089Z,3.80
2022-08-10T23:38:12.360Z,3.65
2022-08-10T23:40:49.855Z,3.28
2022-08-10T23:43:19.572Z,3.60
2022-08-10T23:45:57.154Z,3.55
2022-08-10T23:48:34.581Z,3.78
2022-08-10T23:51:16.057Z,2.97
2022-08-10T23:53:48.002Z,3.40
2022-08-10T23:56:22.382Z,3.30
2022-08-10T23:59:00.765Z,3.55
